Archival Weather

Chicago O'Hare International

Chicago, Illinois (KORD)

Report from: Saturday, May 20, 2023 8:51 AM CDT
Current time: Sunday, February 25, 2024 2:56 PM CST

Current weather – Weather history – Daily summaries
Weather forecast

Temperature13.3°C (55.9°F)
Dew point6.1°C (43.0°F)
Winds 9 kts (4.6 m/s, 10.4 mph) North-Northwest (340°)
Visibility10 mi. (16.1 km)
Clouds Few clouds 3,000 ft. (914 m)
Altimeter30.15 in.Hg (1021 mB)
Relative humidity62 %
Density altitude-330 ft. (-100 m)
Sea-level pressure102.1 kPa (1021 mB, 30.15 in.Hg)
Remarks Automated weather observing station with precipitation discriminator
Flight conditions Visual Meteorological Conditions
Raw dataKORD 201351Z 34009KT 10SM FEW030 13/06 A3015 RMK AO2 SLP211 T01330061
An error has occurred. This application may no longer respond until reloaded. Reload 🗙